Metar Report
Metar
METAR KPTD 222254Z AUTO 00000KT 10SM DZ SCT012 OVC100 19/19 A2986 A02 P0001 0
METAR KPTD 222154Z AUTO 34005KT 10SM BKN012 BKN023 OVC060 20/19 A2986 A02 9000
METAR KPTD 222054Z AUTO 30005KT 10SM SCT015 OVC100 21/19 A2985 A02 8999
METAR KPTD 221954Z AUTO 30006KT 5SM -SN SCT017 SCT022 OVC038 21/19 A2985 A02 P0001 8998
METAR KPTD 221854Z AUTO 00000KT 10SM SCT020 SCT025 OVC100 22/18 A2986 A02 8997
METAR KPTD 221754Z AUTO 20003KT 10SM SCT022 SCT036 OVC090 21/19 A2987 A02 8996
METAR KPTD 221654Z AUTO 18003KT 10SM OVC023 19/18 A2990 A02 8995
METAR KPTD 221554Z AUTO 18003KT 2SM +SN SCT014 SCT020 OVC025 18/18 A2991 A02 P0004 8994
METAR KPTD 221454Z AUTO 24004KT 7SM SCT014 SCT020 OVC028 19/18 A2993 A02 8993
METAR KPTD 221354Z AUTO 25003KT 7SM -SN SCT012 OVC028 19/19 A2992 A02 8992
METAR KPTD 221254Z AUTO 25004KT 10SM OVC028 19/18 A2993 A02 8991
METAR KPTD 221154Z AUTO 23004KT 10SM OVC030 19/18 A2993 A02 8990
METAR KPTD 221054Z AUTO 00000KT 10SM BKN032 BKN044 OVC060 18/18 A2993 A02 8989
METAR KPTD 220954Z AUTO 00000KT 10SM OVC036 18/18 A2992 A02 8988
METAR KPTD 220854Z AUTO 00000KT 10SM SCT036 OVC070 18/17 A2992 A02 8987
METAR KPTD 220754Z AUTO 00000KT 10SM SCT044 SCT070 OVC100 18/18 A2992 A02 8986
METAR KPTD 220654Z AUTO 00000KT 10SM OVC070 18/17 A2993 A02 8985
METAR KPTD 220554Z AUTO 00000KT 10SM SCT050 SCT085 OVC110 19/18 A2995 A02 8984
METAR KPTD 220454Z AUTO 00000KT 10SM OVC049 19/18 A2996 A02 8983
METAR KPTD 220354Z AUTO 17005KT 7SM -RA BKN049 BKN065 OVC110 19/17 A2996 A02 8982
METAR KPTD 220254Z AUTO 17003KT 10SM OVC110 20/17 A2998 A02 8981
METAR KPTD 220154Z AUTO 20009G14KT 10SM BKN120 22/16 A2999 A02 8980
METAR KPTD 220054Z AUTO 22006KT 10SM SCT120 23/16 A2998 A02 8979
METAR KPTD 212354Z AUTO 20008KT 10SM SCT075 BKN085 24/16 A2998 A02 8978
METAR KPTD 212254Z AUTO 25003KT 10SM BKN070 BKN080 25/19 A2997 A02 8977
METAR KPTD 212154Z AUTO 00000KT 10SM SCT060 BKN075 26/19 A2998 A02 8976
METAR KPTD 212054Z AUTO 00000KT 10SM SCT060 BKN070 OVC120 25/19 A3000 A02 P0001 8975
METAR KPTD 211954Z AUTO 25006KT 10SM SCT060 BKN070 BKN090 23/19 A3002 A02 8974
METAR KPTD 211854Z AUTO 26006KT 10SM BKN065 BKN070 OVC090 25/19 A3003 A02 8973
METAR KPTD 211754Z AUTO 23004KT 10SM BKN065 OVC080 28/14 A3004 A02 8972
METAR KPTD 211654Z AUTO 26004KT 10SM SCT070 28/13 A3007 A02 8971
METAR KPTD 211554Z AUTO 15006KT 10SM CLR 27/12 A3010 A02 8970
METAR KPTD 211454Z AUTO 27003KT 10SM CLR 26/11 A3012 A02 8969
METAR KPTD 211354Z AUTO 23006KT 10SM CLR 24/12 A3014 A02 8968
METAR KPTD 211254Z AUTO 23005KT 10SM CLR 23/12 A3014 A02 8967
METAR KPTD 211154Z AUTO 00000KT 10SM CLR 21/14 A3015 A02 8966
METAR KPTD 211054Z AUTO 00000KT 10SM CLR 14/14 A3015 A02 8965
METAR KPTD 210954Z AUTO 00000KT 10SM CLR 14/14 A3014 A02 8964
METAR KPTD 210854Z AUTO 00000KT 10SM CLR 16/13 A3014 A02 8963
METAR KPTD 210754Z AUTO 00000KT 10SM CLR 16/14 A3014 A02 8962
METAR KPTD 210654Z AUTO 24003KT 10SM CLR 18/13 A3014 A02 8961
METAR KPTD 210554Z AUTO 17004KT 10SM CLR 19/14 A3014 A02 8960
METAR KPTD 210454Z AUTO 19003KT 10SM CLR 17/14 A3015 A02 8959
METAR KPTD 210354Z AUTO 20003KT 10SM CLR 19/14 A3015 A02 8958
METAR KPTD 210254Z AUTO 20003KT 10SM CLR 19/16 A3015 A02 8957
METAR KPTD 210154Z AUTO 16003KT 10SM CLR 19/16 A3015 A02 8956
METAR KPTD 210054Z AUTO 22003KT 10SM CLR 23/16 A3014 A02 8955
METAR KPTD 202354Z AUTO 30004KT 10SM CLR 28/13 A3013 A02 8954
METAR KPTD 202254Z AUTO 35004KT 10SM CLR 29/15 A3012 A02 8953
METAR KPTD 202154Z AUTO 00000KT 10SM CLR 30/14 A3013 A02 8952
METAR KPTD 202054Z AUTO 29005KT 10SM CLR 31/14 A3014 A02 8951
METAR KPTD 201954Z AUTO 00000KT 10SM CLR 31/13 A3015 A02 8950
METAR KPTD 201854Z AUTO 31004KT 10SM CLR 31/13 A3016 A02 8949
METAR KPTD 201754Z AUTO 35003KT 10SM CLR 30/13 A3019 A02 8948
METAR KPTD 201654Z AUTO 00000KT 10SM CLR 29/12 A3021 A02 8947
METAR KPTD 201554Z AUTO 32005KT 10SM CLR 28/12 A3022 A02 8946
METAR KPTD 201454Z AUTO 00000KT 10SM CLR 27/11 A3022 A02 8945
METAR KPTD 201354Z AUTO 27003KT 10SM CLR 25/12 A3024 A02 8944
METAR KPTD 201254Z AUTO 00000KT 10SM CLR 22/14 A3023 A02 8943
METAR KPTD 201154Z AUTO 00000KT 10SM CLR 19/13 A3022 A02 8942
METAR KPTD 201054Z AUTO 00000KT 10SM CLR 14/12 A3021 A02 8941
METAR KPTD 200954Z AUTO 00000KT 10SM CLR 10/09 A3019 A02 8940
METAR KPTD 200854Z AUTO 00000KT 10SM CLR 11/09 A3018 A02 8939
METAR KPTD 200754Z AUTO 00000KT 10SM CLR 11/10 A3018 A02 8938
METAR KPTD 200654Z AUTO 00000KT 10SM CLR 11/10 A3017 A02 8937
METAR KPTD 200554Z AUTO 00000KT 10SM CLR 13/10 A3017 A02 8936
METAR KPTD 200454Z AUTO 00000KT 10SM CLR 12/11 A3017 A02 8935
METAR KPTD 200354Z AUTO 18003KT 10SM CLR 13/11 A3017 A02 8934
METAR KPTD 200254Z AUTO 00000KT 10SM CLR 15/12 A3016 A02 8933
METAR KPTD 200154Z AUTO 00000KT 10SM CLR 16/12 A3014 A02 8932
METAR KPTD 200054Z AUTO 00000KT 10SM CLR 17/13 A3014 A02 8931
METAR KPTD 192354Z AUTO 00000KT 10SM CLR 23/11 A3012 A02 8930
METAR KPTD 192254Z AUTO 25003KT 10SM CLR 25/11 A3011 A02 8929
METAR KPTD 192154Z AUTO 25004KT 10SM CLR 27/08 A3011 A02 8928
METAR KPTD 192054Z AUTO 00000KT 10SM CLR 27/09 A3012 A02 8927
METAR KPTD 191954Z AUTO 27005KT 10SM CLR 27/09 A3013 A02 8926
METAR KPTD 191854Z AUTO 27007KT 10SM CLR 27/09 A3013 A02 8925
METAR KPTD 191754Z AUTO 31005KT 10SM CLR 26/08 A3014 A02 8924
METAR KPTD 191654Z AUTO 29005KT 10SM CLR 25/08 A3016 A02 8923
METAR KPTD 191554Z AUTO 29004KT 10SM CLR 23/08 A3018 A02 8922
METAR KPTD 191454Z AUTO 27004KT 10SM CLR 22/07 A3017 A02 8921
METAR KPTD 191354Z AUTO 00000KT 10SM CLR 20/09 A3018 A02 8920
METAR KPTD 191254Z AUTO 00000KT 10SM CLR 18/09 A3016 A02 8919
METAR KPTD 191154Z AUTO 00000KT 10SM CLR 15/11 A3017 A02 8918
METAR KPTD 191054Z AUTO 00000KT 10SM BKN110 11/09 A3018 A02 8917
METAR KPTD 190954Z AUTO 00000KT 10SM CLR 07/07 A3017 A02 8916
METAR KPTD 190854Z AUTO 00000KT 10SM SCT090 07/07 A3016 A02 8915
METAR KPTD 190754Z AUTO 00000KT 10SM CLR 08/07 A3016 A02 8914
METAR KPTD 190654Z AUTO 00000KT 10SM OVC090 10/07 A3017 A02 8913
METAR KPTD 190554Z AUTO 00000KT 10SM CLR 09/06 A3017 A02 8912
METAR KPTD 190454Z AUTO 16003KT 10SM CLR 11/07 A3016 A02 8911
METAR KPTD 190354Z AUTO 00000KT 10SM SCT100 12/08 A3016 A02 8910
METAR KPTD 190254Z AUTO 00000KT 10SM OVC110 12/08 A3016 A02 8909
METAR KPTD 190154Z AUTO 19003KT 10SM CLR 12/09 A3016 A02 8908
METAR KPTD 190054Z AUTO 00000KT 10SM BKN120 16/08 A3015 A02 8907
METAR KPTD 182354Z AUTO 31003KT 10SM CLR 18/06 A3014 A02 8906
METAR KPTD 182254Z AUTO 28003KT 10SM CLR 19/06 A3013 A02 8905
METAR KPTD 182154Z AUTO 32004KT 10SM SCT120 21/04 A3014 A02 8904
METAR KPTD 182054Z AUTO 28007KT 10SM CLR 21/05 A3016 A02 8903
METAR KPTD 181954Z AUTO 32006KT 10SM CLR 21/05 A3017 A02 8902
METAR KPTD 181854Z AUTO 24006KT 10SM CLR 21/03 A3018 A02 8901
METAR KPTD 181754Z AUTO 24005KT 10SM CLR 20/04 A3020 A02 8900
METAR KPTD 181654Z AUTO 17003KT 10SM SCT120 18/04 A3020 A02 8899
METAR KPTD 181554Z AUTO 30004KT 10SM BKN120 18/04 A3023 A02 8898
METAR KPTD 181454Z AUTO 25007KT 10SM CLR 17/03 A3024 A02 8897
METAR KPTD 181354Z AUTO 24006KT 10SM CLR 16/06 A3024 A02 8896
METAR KPTD 181254Z AUTO 25006KT 10SM CLR 14/05 A3024 A02 8895
METAR KPTD 181154Z AUTO 22004KT 10SM CLR 12/04 A3024 A02 8894
METAR KPTD 181054Z AUTO 21004KT 10SM CLR 09/03 A3021 A02 8893
METAR KPTD 180954Z AUTO 20005KT 10SM CLR 07/02 A3019 A02 8892
METAR KPTD 180854Z AUTO 22004KT 10SM CLR 07/02 A3019 A02 8891
METAR KPTD 180754Z AUTO 19004KT 10SM CLR 07/02 A3018 A02 8890
METAR KPTD 180654Z AUTO 21004KT 10SM CLR 07/02 A3018 A02 8889
METAR KPTD 180554Z AUTO 21005KT 10SM CLR 08/02 A3018 A02 8888
METAR KPTD 180454Z AUTO 21004KT 10SM CLR 08/03 A3018 A02 8887
METAR KPTD 180354Z AUTO 20004KT 10SM CLR 08/04 A3019 A02 8886
METAR KPTD 180254Z AUTO 21004KT 10SM CLR 09/04 A3018 A02 8885
METAR KPTD 180154Z AUTO 23005KT 10SM CLR 10/05 A3017 A02 8884
METAR KPTD 180054Z AUTO 25006KT 10SM CLR 11/04 A3015 A02 8883
METAR KPTD 172354Z AUTO 25007KT 10SM CLR 14/04 A3013 A02 8882
METAR KPTD 172254Z AUTO 30006KT 10SM CLR 16/02 A3012 A02 8881